createdAt,value
2016-04-16T00:00:58.602Z,12.15
2016-04-16T00:01:58.636Z,12.22
2016-04-16T00:02:58.655Z,12.1
2016-04-16T00:03:58.674Z,12.22
2016-04-16T00:04:58.692Z,12.24
2016-04-16T00:05:58.725Z,12.15
2016-04-16T00:06:58.775Z,12.24
2016-04-16T00:07:58.746Z,12.22
2016-04-16T00:08:58.983Z,12.22
2016-04-16T00:09:58.799Z,12.24
2016-04-16T00:10:58.832Z,12.15
2016-04-16T00:11:58.960Z,12.22
2016-04-16T00:12:58.868Z,12.25
2016-04-16T00:13:58.871Z,12.09
2016-04-16T00:14:58.906Z,12.2
2016-04-16T00:15:58.924Z,12.12
2016-04-16T00:16:58.943Z,12.15
2016-04-16T00:17:58.962Z,12.24
2016-04-16T00:18:58.979Z,12.17
2016-04-16T00:19:58.810Z,12.12
2016-04-16T00:20:59.031Z,12.12
2016-04-16T00:21:59.034Z,12.13
2016-04-16T00:22:59.068Z,12.12
2016-04-16T00:23:59.087Z,12.15
2016-04-16T00:24:59.106Z,12.17
2016-04-16T00:25:59.139Z,12.13
2016-04-16T00:26:59.157Z,12.15
2016-04-16T00:27:59.175Z,12.13
2016-04-16T00:28:59.209Z,12.15
2016-04-16T00:29:59.212Z,12.13
2016-04-16T00:30:59.230Z,12.1
2016-04-16T00:31:59.249Z,12.09
2016-04-16T00:32:59.266Z,12.12
2016-04-16T00:33:59.285Z,12.15
2016-04-16T00:34:59.507Z,12.17
2016-04-16T00:36:01.775Z,12.13
2016-04-16T00:36:59.356Z,12.1
2016-04-16T00:37:59.358Z,12.15
2016-04-16T00:38:59.393Z,12.13
2016-04-16T00:39:59.410Z,12.18
2016-04-16T00:40:59.429Z,12.2
2016-04-16T00:41:59.291Z,12.18
2016-04-16T00:42:59.465Z,12.18
2016-04-16T00:43:59.484Z,12.1
2016-04-16T00:44:59.517Z,12.12
2016-04-16T00:45:59.536Z,12.17
2016-04-16T00:47:02.570Z,12.13
2016-04-16T00:47:59.573Z,12.12
2016-04-16T00:48:59.591Z,12.17
2016-04-16T00:49:59.798Z,12.04
2016-04-16T00:50:59.643Z,12.02
2016-04-16T00:51:59.662Z,12.06
2016-04-16T00:52:59.664Z,12.13
2016-04-16T00:53:59.699Z,12.13
2016-04-16T00:54:59.717Z,12.21
2016-04-16T00:55:59.735Z,12.06
2016-04-16T00:56:59.754Z,12.04
2016-04-16T00:57:59.772Z,12.12
2016-04-16T00:58:59.790Z,12.13
2016-04-16T00:59:59.839Z,12.06
2016-04-16T01:00:59.827Z,12.06
2016-04-16T01:01:59.860Z,12.06
2016-04-16T01:02:59.878Z,12.15
2016-04-16T01:03:59.897Z,12.09
2016-04-16T01:04:59.947Z,12.17
2016-04-16T01:05:59.934Z,12.2
2016-04-16T01:06:59.968Z,12.04
2016-04-16T01:07:59.986Z,12.07
2016-04-16T01:09:00.004Z,12.17
2016-04-16T01:10:00.022Z,12.04
2016-04-16T01:11:00.041Z,12.09
2016-04-16T01:12:00.059Z,12.06
2016-04-16T01:13:00.077Z,12.12
2016-04-16T01:14:00.111Z,12.06
2016-04-16T01:15:00.115Z,12.03
2016-04-16T01:16:00.132Z,12.07
2016-04-16T01:17:00.182Z,12.13
2016-04-16T01:18:00.184Z,12.04
2016-04-16T01:19:00.203Z,12.13
2016-04-16T01:20:00.268Z,12.1
2016-04-16T01:21:00.239Z,12.02
2016-04-16T01:22:00.259Z,12.12
2016-04-16T01:23:00.276Z,12.04
2016-04-16T01:24:00.310Z,12.06
2016-04-16T01:25:00.312Z,12.1
2016-04-16T01:26:00.347Z,12.07
2016-04-16T01:27:00.364Z,12.06
2016-04-16T01:28:00.399Z,12.06
2016-04-16T01:29:00.402Z,12.02
2016-04-16T01:30:00.436Z,12.13
2016-04-16T01:31:00.453Z,12.1
2016-04-16T01:32:00.472Z,12.07
2016-04-16T01:33:00.491Z,12
2016-04-16T01:34:00.508Z,12.1
2016-04-16T01:35:00.527Z,12.06
2016-04-16T01:36:00.546Z,12.07
2016-04-16T01:37:00.563Z,12.06
2016-04-16T01:38:00.582Z,12.1
2016-04-16T01:39:00.600Z,12.1
2016-04-16T01:40:00.634Z,12.04
2016-04-16T01:41:00.652Z,12
2016-04-16T01:42:00.671Z,12.1
2016-04-16T01:43:00.689Z,12.02
2016-04-16T01:44:00.707Z,12.04
2016-04-16T01:45:00.726Z,12.1
2016-04-16T01:46:00.744Z,11.95
2016-04-16T01:47:00.779Z,12.04
2016-04-16T01:48:00.782Z,12
2016-04-16T01:49:00.831Z,12.04
2016-04-16T01:50:00.834Z,11.99
2016-04-16T01:51:00.851Z,11.99
2016-04-16T01:52:00.885Z,12.07
2016-04-16T01:53:00.887Z,12.07
2016-04-16T01:54:00.922Z,11.99
2016-04-16T01:55:00.940Z,12.03
2016-04-16T01:56:00.943Z,11.95
2016-04-16T01:57:00.978Z,11.94
2016-04-16T01:58:00.995Z,12
2016-04-16T01:59:01.029Z,12.07
2016-04-16T02:00:01.031Z,11.95
2016-04-16T02:01:01.066Z,11.94
2016-04-16T02:02:01.068Z,12
2016-04-16T02:03:01.106Z,12
2016-04-16T02:04:01.109Z,11.95
2016-04-16T02:05:01.127Z,12.04
2016-04-16T02:06:01.161Z,12
2016-04-16T02:07:01.179Z,11.97
2016-04-16T02:08:01.198Z,12
2016-04-16T02:09:01.216Z,12.07
2016-04-16T02:10:01.234Z,11.97
2016-04-16T02:11:01.269Z,12.03
2016-04-16T02:12:01.272Z,12.03
2016-04-16T02:13:01.306Z,12.04
2016-04-16T02:14:01.323Z,11.99
2016-04-16T02:15:01.342Z,12
2016-04-16T02:16:01.360Z,11.99
2016-04-16T02:17:01.394Z,12.04
2016-04-16T02:18:01.396Z,12.02
2016-04-16T02:19:01.415Z,12.04
2016-04-16T02:20:01.433Z,12.03
2016-04-16T02:21:01.483Z,11.94
2016-04-16T02:22:01.471Z,11.94
2016-04-16T02:23:01.507Z,11.95
2016-04-16T02:24:01.540Z,11.87
2016-04-16T02:25:01.543Z,12.03
2016-04-16T02:26:01.560Z,11.97
2016-04-16T02:27:01.579Z,12.04
2016-04-16T02:28:01.598Z,12
2016-04-16T02:29:01.615Z,11.94
2016-04-16T02:30:01.635Z,12
2016-04-16T02:31:01.653Z,11.91
2016-04-16T02:32:01.687Z,11.94
2016-04-16T02:33:01.704Z,11.95
2016-04-16T02:34:01.739Z,12
2016-04-16T02:35:01.741Z,12
2016-04-16T02:36:01.759Z,12
2016-04-16T02:37:01.778Z,11.9
2016-04-16T02:38:01.797Z,11.88
2016-04-16T02:39:01.831Z,11.99
2016-04-16T02:40:01.848Z,12
2016-04-16T02:41:01.867Z,11.9
2016-04-16T02:42:01.885Z,11.9
2016-04-16T02:43:01.903Z,11.97
2016-04-16T02:44:01.921Z,11.87
2016-04-16T02:45:01.981Z,12.03
2016-04-16T02:46:02.058Z,11.91
2016-04-16T02:47:02.118Z,11.91
2016-04-16T02:48:02.180Z,11.88
2016-04-16T02:49:02.241Z,11.94
2016-04-16T02:50:02.275Z,11.99
2016-04-16T02:51:02.293Z,11.87
2016-04-16T02:52:02.343Z,11.9
2016-04-16T02:53:02.376Z,11.91
2016-04-16T02:54:02.411Z,11.86
2016-04-16T02:55:02.434Z,11.99
2016-04-16T02:56:02.458Z,11.94
2016-04-16T02:57:02.498Z,11.87
2016-04-16T02:58:02.522Z,11.88
2016-04-16T02:59:02.546Z,11.97
2016-04-16T03:00:02.566Z,11.9
2016-04-16T03:01:02.602Z,11.97
2016-04-16T03:02:02.606Z,11.91
2016-04-16T03:03:02.487Z,11.99
2016-04-16T03:04:02.648Z,11.9
2016-04-16T03:05:02.526Z,11.99
2016-04-16T03:06:02.702Z,11.88
2016-04-16T03:07:02.736Z,11.87
2016-04-16T03:08:02.740Z,11.88
2016-04-16T03:09:02.774Z,11.91
2016-04-16T03:10:02.793Z,11.9
2016-04-16T03:11:02.827Z,11.95
2016-04-16T03:12:02.847Z,11.99
2016-04-16T03:13:02.834Z,11.94
2016-04-16T03:14:02.868Z,11.88
2016-04-16T03:15:02.886Z,11.99
2016-04-16T03:16:02.904Z,11.95
2016-04-16T03:17:02.923Z,11.86
2016-04-16T03:18:02.941Z,11.88
2016-04-16T03:19:02.959Z,11.91
2016-04-16T03:20:02.977Z,11.99
2016-04-16T03:21:03.043Z,11.97
2016-04-16T03:22:03.030Z,11.94
2016-04-16T03:23:03.048Z,11.99
2016-04-16T03:24:03.066Z,11.9
2016-04-16T03:25:03.100Z,11.86
2016-04-16T03:26:03.102Z,12
2016-04-16T03:27:03.121Z,11.9
2016-04-16T03:28:03.140Z,12.03
2016-04-16T03:29:03.158Z,12.03
2016-04-16T03:30:03.192Z,11.9
2016-04-16T03:31:03.210Z,11.87
2016-04-16T03:32:03.244Z,11.91
2016-04-16T03:33:03.263Z,11.99
2016-04-16T03:34:03.296Z,12
2016-04-16T03:35:03.299Z,11.95
2016-04-16T03:36:03.301Z,12.04
2016-04-16T03:37:03.320Z,11.86
2016-04-16T03:38:03.354Z,11.99
2016-04-16T03:39:03.357Z,11.99
2016-04-16T03:40:03.390Z,12
2016-04-16T03:41:03.409Z,12.03
2016-04-16T03:42:03.428Z,11.95
2016-04-16T03:43:03.445Z,11.97
2016-04-16T03:44:03.465Z,12
2016-04-16T03:45:03.342Z,11.97
2016-04-16T03:46:03.501Z,12.02
2016-04-16T03:47:03.519Z,12.02
2016-04-16T03:48:03.537Z,12
2016-04-16T03:49:03.572Z,11.95
2016-04-16T03:50:03.589Z,12.04
2016-04-16T03:51:03.608Z,12.02
2016-04-16T03:52:03.625Z,12.06
2016-04-16T03:53:03.645Z,12.03
2016-04-16T03:54:03.663Z,11.94
2016-04-16T03:55:03.681Z,12.02
2016-04-16T03:56:03.699Z,12.02
2016-04-16T03:57:03.749Z,12.04
2016-04-16T03:58:03.752Z,12.03
2016-04-16T03:59:03.769Z,12
2016-04-16T04:00:03.788Z,11.99
2016-04-16T04:01:03.806Z,12
2016-04-16T04:02:03.824Z,11.99
2016-04-16T04:03:03.843Z,12
2016-04-16T04:04:03.862Z,12.02
2016-04-16T04:05:03.896Z,12.02
2016-04-16T04:06:03.757Z,12.02
2016-04-16T04:07:03.932Z,12.07
2016-04-16T04:08:03.950Z,12.12
2016-04-16T04:09:03.968Z,12.02
2016-04-16T04:10:03.987Z,12.06
2016-04-16T04:11:04.006Z,11.99
2016-04-16T04:12:04.040Z,12.07
2016-04-16T04:13:04.042Z,12.03
2016-04-16T04:14:04.123Z,12.07
2016-04-16T04:15:04.094Z,12
2016-04-16T04:16:04.097Z,11.97
2016-04-16T04:17:04.131Z,11.97
2016-04-16T04:18:04.164Z,12.06
2016-04-16T04:19:04.167Z,12.07
2016-04-16T04:20:04.186Z,12.06
2016-04-16T04:21:04.220Z,12.03
2016-04-16T04:22:04.223Z,12.09
2016-04-16T04:23:04.241Z,12.04
2016-04-16T04:24:04.275Z,12.15
2016-04-16T04:25:04.293Z,12.12
2016-04-16T04:26:04.311Z,11.97
2016-04-16T04:27:04.329Z,12.09
2016-04-16T04:28:04.347Z,12.03
2016-04-16T04:29:04.382Z,12.03
2016-04-16T04:30:04.400Z,12.09
2016-04-16T04:31:04.403Z,12.07
2016-04-16T04:32:04.437Z,12.09
2016-04-16T04:33:04.455Z,12.15
2016-04-16T04:34:04.473Z,12.12
2016-04-16T04:35:04.492Z,12.06
2016-04-16T04:36:04.510Z,12.15
2016-04-16T04:37:04.544Z,12.13
2016-04-16T04:38:04.547Z,12.09
2016-04-16T04:39:04.581Z,12.03
2016-04-16T04:40:04.599Z,12.1
2016-04-16T04:41:04.617Z,12.17
2016-04-16T04:42:04.635Z,12.1
2016-04-16T04:43:04.653Z,12.07
2016-04-16T04:44:04.673Z,12.09
2016-04-16T04:45:04.706Z,12.13
2016-04-16T04:46:04.709Z,12.12
2016-04-16T04:47:04.743Z,12.17
2016-04-16T04:48:04.761Z,12.18
2016-04-16T04:49:04.779Z,12.13
2016-04-16T04:50:04.797Z,12.22
2016-04-16T04:51:04.941Z,12.25
2016-04-16T04:52:04.834Z,12.22
2016-04-16T04:53:04.853Z,12.2
2016-04-16T04:54:04.872Z,12.22
2016-04-16T04:55:04.905Z,12.24
2016-04-16T04:56:04.908Z,12.29
2016-04-16T04:57:04.925Z,12.24
2016-04-16T04:58:04.960Z,12.24
2016-04-16T04:59:04.977Z,12.24
2016-04-16T05:00:04.997Z,12.28
2016-04-16T05:01:05.015Z,12.24
2016-04-16T05:02:05.033Z,12.28
2016-04-16T05:03:05.067Z,12.31
2016-04-16T05:04:05.069Z,12.27
2016-04-16T05:05:05.104Z,12.35
2016-04-16T05:06:05.184Z,12.31
2016-04-16T05:07:05.140Z,12.22
2016-04-16T05:08:05.162Z,12.35
2016-04-16T05:09:05.180Z,12.27
2016-04-16T05:10:05.213Z,12.4
2016-04-16T05:11:05.232Z,12.39
2016-04-16T05:12:05.234Z,12.42
2016-04-16T05:13:05.269Z,12.39
2016-04-16T05:14:05.271Z,12.42
2016-04-16T05:15:05.306Z,12.47
2016-04-16T05:16:05.309Z,12.31
2016-04-16T05:17:05.357Z,12.43
2016-04-16T05:18:05.375Z,12.43
2016-04-16T05:19:05.394Z,12.39
2016-04-16T05:20:05.412Z,12.42
2016-04-16T05:21:05.509Z,12.45
2016-04-16T05:22:05.450Z,12.4
2016-04-16T05:23:05.468Z,12.42
2016-04-16T05:24:05.486Z,12.45
2016-04-16T05:25:05.504Z,12.47
2016-04-16T05:26:05.539Z,12.42
2016-04-16T05:27:05.556Z,12.47
2016-04-16T05:28:05.558Z,12.47
2016-04-16T05:29:05.594Z,12.5
2016-04-16T05:30:05.611Z,12.43
2016-04-16T05:31:05.630Z,12.46
2016-04-16T05:32:05.648Z,12.45
2016-04-16T05:33:05.667Z,12.5
2016-04-16T05:34:05.700Z,12.49
2016-04-16T05:35:05.718Z,12.49
2016-04-16T05:36:05.721Z,12.53
2016-04-16T05:37:05.849Z,12.5
2016-04-16T05:38:05.930Z,12.54
2016-04-16T05:39:05.791Z,12.57
2016-04-16T05:40:05.810Z,12.54
2016-04-16T05:41:05.829Z,12.55
2016-04-16T05:42:05.847Z,12.5
2016-04-16T05:43:05.896Z,12.5
2016-04-16T05:44:05.884Z,12.65
2016-04-16T05:45:06.042Z,12.64
2016-04-16T05:46:05.935Z,12.58
2016-04-16T05:47:05.954Z,12.68
2016-04-16T05:48:05.972Z,12.61
2016-04-16T05:49:06.085Z,12.64
2016-04-16T05:50:06.103Z,12.65
2016-04-16T05:51:06.137Z,12.67
2016-04-16T05:52:06.108Z,12.61
2016-04-16T05:53:06.111Z,12.62
2016-04-16T05:54:06.207Z,12.65
2016-04-16T05:55:06.116Z,12.64
2016-04-16T05:56:06.134Z,12.65
2016-04-16T05:57:06.153Z,12.67
2016-04-16T05:58:06.186Z,12.65
2016-04-16T05:59:06.189Z,12.72
2016-04-16T06:00:06.222Z,12.7
2016-04-16T06:01:06.242Z,12.67
2016-04-16T06:02:06.260Z,12.75
2016-04-16T06:03:06.278Z,12.73
2016-04-16T06:04:06.296Z,12.7
2016-04-16T06:05:06.315Z,12.73
2016-04-16T06:06:06.443Z,12.72
2016-04-16T06:07:06.366Z,12.76
2016-04-16T06:08:06.432Z,12.79
2016-04-16T06:09:06.404Z,12.76
2016-04-16T06:10:06.421Z,12.79
2016-04-16T06:11:06.456Z,12.83
2016-04-16T06:12:06.537Z,12.82
2016-04-16T06:13:06.555Z,12.86
2016-04-16T06:14:06.699Z,12.86
2016-04-16T06:15:06.545Z,12.91
2016-04-16T06:16:06.548Z,12.94
2016-04-16T06:17:06.566Z,12.91
2016-04-16T06:18:06.585Z,12.97
2016-04-16T06:19:06.618Z,13
2016-04-16T06:20:06.637Z,12.95
2016-04-16T06:21:06.811Z,13.01
2016-04-16T06:22:06.673Z,12.95
2016-04-16T06:23:06.691Z,12.98
2016-04-16T06:24:06.710Z,13.01
2016-04-16T06:25:06.728Z,13.09
2016-04-16T06:26:06.747Z,13.09
2016-04-16T06:27:06.796Z,13.08
2016-04-16T06:28:06.783Z,13.05
2016-04-16T06:29:06.832Z,13.03
2016-04-16T06:30:06.836Z,13.03
2016-04-16T06:31:06.853Z,13.2
2016-04-16T06:32:06.872Z,13.19
2016-04-16T06:33:06.890Z,13.2
2016-04-16T06:34:06.924Z,13.13
2016-04-16T06:35:06.942Z,13.23
2016-04-16T06:36:06.960Z,13.23
2016-04-16T06:37:06.980Z,13.22
2016-04-16T06:38:07.216Z,13.25
2016-04-16T06:39:07.016Z,13.31
2016-04-16T06:40:07.034Z,13.2
2016-04-16T06:41:07.068Z,13.33
2016-04-16T06:42:07.086Z,13.37
2016-04-16T06:43:07.105Z,13.33
2016-04-16T06:44:07.155Z,13.31
2016-04-16T06:45:07.141Z,13.41
2016-04-16T06:46:07.176Z,13.38
2016-04-16T06:47:07.256Z,13.37
2016-04-16T06:48:07.212Z,13.39
2016-04-16T06:49:07.230Z,13.38
2016-04-16T06:50:07.092Z,13.33
2016-04-16T06:51:07.220Z,13.53
2016-04-16T06:52:07.301Z,13.5
2016-04-16T06:53:07.320Z,13.56
2016-04-16T06:54:07.337Z,13.6
2016-04-16T06:55:07.371Z,13.57
2016-04-16T06:56:07.390Z,13.6
2016-04-16T06:57:07.408Z,13.6
2016-04-16T06:58:07.411Z,13.65
2016-04-16T06:59:07.445Z,13.7
2016-04-16T07:00:07.306Z,13.7
2016-04-16T07:01:07.497Z,13.7
2016-04-16T07:02:07.500Z,13.63
2016-04-16T07:03:07.533Z,13.71
2016-04-16T07:04:07.552Z,13.63
2016-04-16T07:05:07.555Z,13.77
2016-04-16T07:06:07.447Z,13.77
2016-04-16T07:07:07.607Z,13.83
2016-04-16T07:08:07.625Z,13.78
2016-04-16T07:09:07.674Z,13.75
2016-04-16T07:10:07.661Z,13.72
2016-04-16T07:11:07.695Z,13.77
2016-04-16T07:12:07.761Z,13.81
2016-04-16T07:13:07.764Z,13.83
2016-04-16T07:14:07.750Z,13.83
2016-04-16T07:15:07.769Z,13.85
2016-04-16T07:16:07.802Z,13.9
2016-04-16T07:17:07.821Z,13.86
2016-04-16T07:18:07.855Z,13.85
2016-04-16T07:19:07.857Z,13.87
2016-04-16T07:20:07.876Z,13.89
2016-04-16T07:21:07.784Z,13.87
2016-04-16T07:22:08.303Z,13.97
2016-04-16T07:23:07.946Z,13.89
2016-04-16T07:24:07.980Z,13.99
2016-04-16T07:25:07.983Z,13.97
2016-04-16T07:26:08.017Z,13.97
2016-04-16T07:27:08.051Z,13.96
2016-04-16T07:28:08.084Z,13.97
2016-04-16T07:29:08.103Z,13.99
2016-04-16T07:30:08.106Z,13.93
2016-04-16T07:31:08.125Z,13.97
2016-04-16T07:32:08.143Z,14.03
2016-04-16T07:33:08.177Z,13.92
2016-04-16T07:34:08.195Z,13.96
2016-04-16T07:35:08.213Z,13.95
2016-04-16T07:36:08.263Z,14.03
2016-04-16T07:37:08.281Z,14.05
2016-04-16T07:38:08.283Z,14
2016-04-16T07:39:08.286Z,14.03
2016-04-16T07:40:08.304Z,14.05
2016-04-16T07:41:08.338Z,14.07
2016-04-16T07:42:08.342Z,14.07
2016-04-16T07:43:08.374Z,14.08
2016-04-16T07:44:08.393Z,14.1
2016-04-16T07:45:08.427Z,14.11
2016-04-16T07:46:08.446Z,14.17
2016-04-16T07:47:08.465Z,14.2
2016-04-16T07:48:08.483Z,14.22
2016-04-16T07:49:08.501Z,14.26
2016-04-16T07:50:08.535Z,14.14
2016-04-16T07:51:08.537Z,14.22
2016-04-16T07:52:08.571Z,14.23
2016-04-16T07:53:08.590Z,14.22
2016-04-16T07:54:08.609Z,14.2
2016-04-16T07:55:08.642Z,14.22
2016-04-16T07:56:08.754Z,14.2
2016-04-16T07:57:08.679Z,14.18
2016-04-16T07:58:08.807Z,14.26
2016-04-16T07:59:08.839Z,14.25
2016-04-16T08:00:08.874Z,14.26
2016-04-16T08:01:08.753Z,14.33
2016-04-16T08:02:08.786Z,14.25
2016-04-16T08:03:08.803Z,14.26
2016-04-16T08:04:08.822Z,14.23
2016-04-16T08:05:08.841Z,14.25
2016-04-16T08:06:08.875Z,14.37
2016-04-16T08:07:08.893Z,14.3
2016-04-16T08:08:08.911Z,14.29
2016-04-16T08:09:08.930Z,14.25
2016-04-16T08:10:08.948Z,14.29
2016-04-16T08:11:08.982Z,14.36
2016-04-16T08:12:09.000Z,14.3
2016-04-16T08:13:09.034Z,14.35
2016-04-16T08:14:08.880Z,14.3
2016-04-16T08:15:09.055Z,14.37
2016-04-16T08:16:09.088Z,14.33
2016-04-16T08:17:09.097Z,14.37
2016-04-16T08:18:09.131Z,14.36
2016-04-16T08:19:09.165Z,14.3
2016-04-16T08:20:09.183Z,14.33
2016-04-16T08:21:09.201Z,14.3
2016-04-16T08:22:09.203Z,14.36
2016-04-16T08:23:09.223Z,14.41
2016-04-16T08:24:09.256Z,14.35
2016-04-16T08:25:09.290Z,14.36
2016-04-16T08:26:09.292Z,14.44
2016-04-16T08:27:09.326Z,14.33
2016-04-16T08:28:09.345Z,14.47
2016-04-16T08:29:09.363Z,14.43
2016-04-16T08:30:09.397Z,14.43
2016-04-16T08:31:09.416Z,14.44
2016-04-16T08:32:09.434Z,14.41
2016-04-16T08:33:09.467Z,14.43
2016-04-16T08:34:09.470Z,14.36
2016-04-16T08:35:09.505Z,14.41
2016-04-16T08:36:09.522Z,14.45
2016-04-16T08:37:09.541Z,14.44
2016-04-16T08:38:09.669Z,14.48
2016-04-16T08:39:09.687Z,14.33
2016-04-16T08:40:09.705Z,14.35
2016-04-16T08:41:09.724Z,14.35
2016-04-16T08:42:09.741Z,14.35
2016-04-16T08:43:09.744Z,14.48
2016-04-16T08:44:09.591Z,14.36
2016-04-16T08:45:09.750Z,14.44
2016-04-16T08:46:09.769Z,14.33
2016-04-16T08:47:09.818Z,14.43
2016-04-16T08:48:09.821Z,14.43
2016-04-16T08:49:09.839Z,14.43
2016-04-16T08:50:09.857Z,14.45
2016-04-16T08:51:09.845Z,14.45
2016-04-16T08:52:09.973Z,14.44
2016-04-16T08:53:09.990Z,14.4
2016-04-16T08:54:09.978Z,14.4
2016-04-16T08:55:10.012Z,14.37
2016-04-16T08:56:10.045Z,14.4
2016-04-16T08:57:10.032Z,14.41
2016-04-16T08:58:10.050Z,14.45
2016-04-16T08:59:10.053Z,14.43
2016-04-16T09:00:10.039Z,14.41
2016-04-16T09:01:10.075Z,14.51
2016-04-16T09:02:10.092Z,14.5
2016-04-16T09:03:09.361Z,14.44
2016-04-16T09:04:10.145Z,14.48
2016-04-16T09:05:10.178Z,14.54
2016-04-16T09:06:10.181Z,14.48
2016-04-16T09:07:10.200Z,14.51
2016-04-16T09:08:10.219Z,14.5
2016-04-16T09:09:10.361Z,14.53
2016-04-16T09:10:10.380Z,14.51
2016-04-16T09:11:10.366Z,14.58
2016-04-16T09:12:10.385Z,14.58
2016-04-16T09:13:10.529Z,14.51
2016-04-16T09:14:10.531Z,14.54
2016-04-16T09:15:10.534Z,14.68
2016-04-16T09:16:10.537Z,14.62
2016-04-16T09:17:10.555Z,14.65
2016-04-16T09:18:10.558Z,14.68
2016-04-16T09:19:10.575Z,14.62
2016-04-16T09:20:10.562Z,14.7
2016-04-16T09:21:10.581Z,14.7
2016-04-16T09:22:10.709Z,14.68
2016-04-16T09:23:10.726Z,14.68
2016-04-16T09:24:10.730Z,14.72
2016-04-16T09:25:10.686Z,14.79
2016-04-16T09:26:10.704Z,14.78
2016-04-16T09:27:10.706Z,14.78
2016-04-16T09:28:10.740Z,14.79
2016-04-16T09:29:10.759Z,14.77
2016-04-16T09:30:10.762Z,14.73
2016-04-16T09:31:10.765Z,14.72
2016-04-16T09:32:10.767Z,14.77
2016-04-16T09:33:10.801Z,14.85
2016-04-16T09:34:10.788Z,14.82
2016-04-16T09:35:10.822Z,14.88
2016-04-16T09:36:10.840Z,14.96
2016-04-16T09:37:10.858Z,14.91
2016-04-16T09:38:10.877Z,14.96
2016-04-16T09:39:10.895Z,14.99
2016-04-16T09:40:10.930Z,14.96
2016-04-16T09:41:10.947Z,15.03
2016-04-16T09:42:10.966Z,15.06
2016-04-16T09:43:10.984Z,15
2016-04-16T09:44:11.033Z,15.03
2016-04-16T09:45:11.035Z,15.04
2016-04-16T09:46:11.070Z,15.11
2016-04-16T09:47:11.088Z,15.09
2016-04-16T09:48:11.107Z,15.11
2016-04-16T09:49:11.140Z,15.15
2016-04-16T09:50:11.159Z,15.18
2016-04-16T09:51:11.177Z,15.19
2016-04-16T09:52:11.212Z,15.19
2016-04-16T09:53:11.215Z,15.17
2016-04-16T09:54:11.232Z,15.25
2016-04-16T09:55:11.110Z,15.28
2016-04-16T09:56:11.284Z,15.36
2016-04-16T09:57:11.318Z,15.31
2016-04-16T09:58:11.337Z,15.36
2016-04-16T09:59:11.355Z,15.4
2016-04-16T10:00:11.576Z,15.47
2016-04-16T10:01:11.469Z,15.47
2016-04-16T10:02:11.614Z,15.49
2016-04-16T10:03:11.632Z,15.52
2016-04-16T10:04:11.634Z,15.54
2016-04-16T10:05:11.652Z,15.54
2016-04-16T10:06:11.639Z,15.67
2016-04-16T10:07:11.642Z,15.57
2016-04-16T10:08:11.661Z,15.67
2016-04-16T10:09:11.695Z,15.57
2016-04-16T10:10:11.682Z,15.59
2016-04-16T10:11:11.669Z,15.67
2016-04-16T10:12:11.734Z,15.67
2016-04-16T10:13:11.690Z,15.72
2016-04-16T10:14:11.693Z,15.73
2016-04-16T10:15:11.696Z,15.62
2016-04-16T10:16:11.730Z,15.62
2016-04-16T10:17:11.747Z,15.64
2016-04-16T10:18:11.782Z,15.68
2016-04-16T10:19:11.799Z,15.68
2016-04-16T10:20:11.834Z,15.59
2016-04-16T10:21:11.851Z,15.65
2016-04-16T10:22:11.870Z,15.59
2016-04-16T10:23:11.888Z,15.61
2016-04-16T10:24:11.907Z,15.64
2016-04-16T10:25:11.973Z,15.55
2016-04-16T10:26:11.959Z,15.59
2016-04-16T10:27:11.978Z,15.54
2016-04-16T10:28:11.995Z,15.58
2016-04-16T10:29:12.029Z,15.58
2016-04-16T10:30:12.063Z,15.47
2016-04-16T10:31:12.066Z,15.57
2016-04-16T10:32:12.116Z,15.51
2016-04-16T10:33:12.119Z,15.54
2016-04-16T10:34:12.152Z,15.51
2016-04-16T10:35:12.155Z,15.51
2016-04-16T10:36:12.189Z,15.52
2016-04-16T10:37:12.208Z,15.55
2016-04-16T10:38:12.226Z,15.46
2016-04-16T10:39:12.244Z,15.54
2016-04-16T10:40:12.278Z,15.52
2016-04-16T10:41:12.296Z,15.51
2016-04-16T10:42:12.314Z,15.46
2016-04-16T10:43:12.349Z,15.44
2016-04-16T10:44:12.367Z,15.43
2016-04-16T10:45:12.401Z,15.43
2016-04-16T10:46:12.404Z,15.43
2016-04-16T10:47:12.438Z,15.4
2016-04-16T10:48:12.455Z,15.46
2016-04-16T10:49:12.490Z,15.44
2016-04-16T10:50:12.492Z,15.46
2016-04-16T10:51:12.526Z,15.4
2016-04-16T10:52:12.544Z,15.46
2016-04-16T10:53:12.578Z,15.47
2016-04-16T10:54:12.596Z,15.43
2016-04-16T10:55:12.615Z,15.47
2016-04-16T10:56:12.648Z,15.47
2016-04-16T10:57:12.651Z,15.49
2016-04-16T10:58:12.686Z,15.51
2016-04-16T10:59:12.704Z,15.44
2016-04-16T11:00:12.723Z,15.44
2016-04-16T11:01:12.757Z,15.47
2016-04-16T11:02:12.775Z,15.42
2016-04-16T11:03:12.793Z,15.44
2016-04-16T11:04:12.827Z,15.44
2016-04-16T11:05:12.845Z,15.39
2016-04-16T11:06:12.878Z,15.37
2016-04-16T11:07:12.928Z,15.42
2016-04-16T11:08:12.916Z,15.36
2016-04-16T11:09:12.934Z,15.35
2016-04-16T11:10:12.953Z,15.22
2016-04-16T11:11:12.971Z,15.31
2016-04-16T11:12:13.020Z,15.28
2016-04-16T11:13:13.022Z,15.25
2016-04-16T11:14:13.057Z,15.25
2016-04-16T11:15:13.074Z,15.24
2016-04-16T11:16:13.109Z,15.18
2016-04-16T11:17:12.955Z,15.15
2016-04-16T11:18:13.130Z,15.19
2016-04-16T11:19:13.163Z,15.14
2016-04-16T11:20:13.213Z,15.14
2016-04-16T11:21:13.169Z,15.07
2016-04-16T11:22:13.188Z,15.21
2016-04-16T11:23:13.284Z,15.07
2016-04-16T11:24:13.287Z,15.06
2016-04-16T11:25:13.290Z,15.06
2016-04-16T11:26:13.323Z,15.1
2016-04-16T11:27:13.342Z,15.14
2016-04-16T11:28:13.376Z,15.06
2016-04-16T11:29:13.394Z,15.1
2016-04-16T11:30:13.412Z,15.1
2016-04-16T11:31:13.430Z,15.07
2016-04-16T11:32:13.465Z,15.02
2016-04-16T11:33:13.483Z,15.02
2016-04-16T11:34:13.501Z,14.99
2016-04-16T11:35:13.520Z,14.99
2016-04-16T11:36:13.538Z,14.96
2016-04-16T11:37:13.619Z,14.85
2016-04-16T11:38:13.590Z,15
2016-04-16T11:39:13.608Z,14.94
2016-04-16T11:40:13.642Z,14.91
2016-04-16T11:41:13.661Z,14.88
2016-04-16T11:42:13.679Z,14.94
2016-04-16T11:43:13.697Z,14.91
2016-04-16T11:44:13.731Z,15
2016-04-16T11:45:13.749Z,14.91
2016-04-16T11:46:13.768Z,14.86
2016-04-16T11:47:13.802Z,14.97
2016-04-16T11:48:13.820Z,14.94
2016-04-16T11:49:13.838Z,14.97
2016-04-16T11:50:14.122Z,15
2016-04-16T11:51:14.168Z,15.03
2016-04-16T11:52:14.356Z,14.91
2016-04-16T11:53:14.059Z,14.94
2016-04-16T11:54:14.168Z,15.02
2016-04-16T11:55:14.199Z,15.06
2016-04-16T11:56:14.266Z,15.06
2016-04-16T11:57:14.112Z,15.03
2016-04-16T11:58:14.302Z,15.11
2016-04-16T11:59:14.352Z,15.18
2016-04-16T12:00:14.386Z,15.11
2016-04-16T12:01:14.519Z,15.18
2016-04-16T12:02:14.545Z,15.11
2016-04-16T12:03:14.724Z,15.22
2016-04-16T12:04:14.717Z,15.28
2016-04-16T12:05:14.632Z,15.27
2016-04-16T12:06:14.730Z,15.29
2016-04-16T12:07:14.485Z,15.36
2016-04-16T12:08:14.772Z,15.43
2016-04-16T12:09:14.760Z,15.47
2016-04-16T12:10:14.766Z,15.58
2016-04-16T12:11:14.769Z,15.62
2016-04-16T12:12:14.789Z,15.67
2016-04-16T12:13:14.917Z,15.59
2016-04-16T12:14:14.967Z,15.62
2016-04-16T12:15:14.877Z,15.72
2016-04-16T12:16:14.865Z,15.65
2016-04-16T12:17:14.914Z,15.72
2016-04-16T12:18:14.918Z,15.58
2016-04-16T12:19:14.920Z,15.7
2016-04-16T12:20:14.971Z,15.62
2016-04-16T12:21:14.989Z,15.68
2016-04-16T12:22:14.976Z,15.68
2016-04-16T12:23:14.994Z,15.61
2016-04-16T12:24:14.997Z,15.58
2016-04-16T12:25:15.000Z,15.62
2016-04-16T12:26:15.034Z,15.61
2016-04-16T12:27:15.036Z,15.68
2016-04-16T12:28:15.070Z,15.61
2016-04-16T12:29:15.089Z,15.62
2016-04-16T12:30:15.122Z,15.64
2016-04-16T12:31:15.141Z,15.67
2016-04-16T12:32:15.160Z,15.62
2016-04-16T12:33:15.178Z,15.61
2016-04-16T12:34:15.211Z,15.65
2016-04-16T12:35:15.245Z,15.67
2016-04-16T12:36:15.249Z,15.73
2016-04-16T12:37:15.329Z,15.73
2016-04-16T12:38:15.301Z,15.76
2016-04-16T12:39:15.335Z,15.79
2016-04-16T12:40:15.352Z,15.75
2016-04-16T12:41:15.371Z,15.79
2016-04-16T12:42:15.405Z,15.86
2016-04-16T12:43:15.407Z,15.91
2016-04-16T12:44:15.426Z,15.9
2016-04-16T12:45:15.445Z,15.97
2016-04-16T12:46:15.493Z,15.98
2016-04-16T12:47:15.496Z,15.97
2016-04-16T12:48:15.530Z,16.05
2016-04-16T12:49:15.549Z,16.15
2016-04-16T12:50:15.567Z,16.16
2016-04-16T12:51:15.586Z,16.28
2016-04-16T12:52:15.620Z,16.32
2016-04-16T12:53:15.637Z,16.39
2016-04-16T12:54:15.656Z,16.41
2016-04-16T12:55:15.674Z,16.47
2016-04-16T12:56:15.708Z,16.46
2016-04-16T12:57:15.727Z,16.53
2016-04-16T12:58:15.791Z,16.56